RYR84KK LEAM-EBCI
Flight info
| Callsign | RYR84KK |
|---|---|
| Flight time | N/A |
| Altitude | 34000 |
| Route | AGIDO M192 ARPEX DCT BAZAS M192 BLN N865 VTB N867 RBO DCT OSTIX N867 DGO L176 LUSEM DCT LULUT DCT ADABI DCT BOKNO UN858 VANAD UN874 BAMES UT191 PODEM UN873 BAZOS DCT BELDI DCT VEKIN Z173 ARVOL |
| Aircraft | B738/M-SDE3FGILRWY/SB1 |
Departure
| Time | 2026-05-01 15:06 |
|---|---|
| Airport | Almería Airport (LEAM) |
Arrival
| Time | N/A |
|---|---|
| Airport | Brussels South Charleroi Airport (EBCI) |
| Time | Latitude | Longitude | Altitude | Speed | Heading |
|---|---|---|---|---|---|
| 2026-05-01 14:43 | 36.84652 | -2.37249 | 64 ft | 0 kts | 112° |
| 2026-05-01 15:00 | 36.84651 | -2.37247 | 68 ft | 0 kts | 120° |
| 2026-05-01 15:00 | 36.84644 | -2.37244 | 68 ft | 3 kts | 159° |
| 2026-05-01 15:00 | 36.84607 | -2.37228 | 63 ft | 8 kts | 143° |
| 2026-05-01 15:01 | 36.84609 | -2.37156 | 64 ft | 9 kts | 73° |
| 2026-05-01 15:01 | 36.84627 | -2.37079 | 59 ft | 10 kts | 73° |
| 2026-05-01 15:01 | 36.84647 | -2.37001 | 63 ft | 8 kts | 72° |
| 2026-05-01 15:01 | 36.84638 | -2.36929 | 58 ft | 11 kts | 121° |
| 2026-05-01 15:02 | 36.84616 | -2.36819 | 61 ft | 15 kts | 76° |
| 2026-05-01 15:02 | 36.84636 | -2.36735 | 59 ft | 15 kts | 73° |
| 2026-05-01 15:02 | 36.84677 | -2.36570 | 65 ft | 15 kts | 73° |
| 2026-05-01 15:02 | 36.84709 | -2.36437 | 61 ft | 17 kts | 73° |
| 2026-05-01 15:03 | 36.84746 | -2.36288 | 63 ft | 19 kts | 73° |
| 2026-05-01 15:03 | 36.84786 | -2.36125 | 58 ft | 20 kts | 73° |
| 2026-05-01 15:03 | 36.84825 | -2.35965 | 63 ft | 19 kts | 73° |
| 2026-05-01 15:03 | 36.84863 | -2.35810 | 63 ft | 18 kts | 73° |
| 2026-05-01 15:04 | 36.84901 | -2.35655 | 59 ft | 20 kts | 73° |
| 2026-05-01 15:04 | 36.84942 | -2.35486 | 58 ft | 21 kts | 73° |
| 2026-05-01 15:04 | 36.84901 | -2.35332 | 63 ft | 21 kts | 153° |
| 2026-05-01 15:04 | 36.84795 | -2.35383 | 58 ft | 12 kts | 250° |
| 2026-05-01 15:05 | 36.84790 | -2.35404 | 57 ft | 0 kts | 252° |
| 2026-05-01 15:05 | 36.84769 | -2.35487 | 60 ft | 36 kts | 253° |
| 2026-05-01 15:05 | 36.84632 | -2.36045 | 59 ft | 97 kts | 253° |
| 2026-05-01 15:06 | 36.84383 | -2.37062 | 61 ft | 145 kts | 252° |
| 2026-05-01 15:06 | 36.84073 | -2.38328 | 388 ft | 159 kts | 252° |
| 2026-05-01 15:06 | 36.83758 | -2.39708 | 826 ft | 174 kts | 252° |
| 2026-05-01 15:06 | 36.83429 | -2.41219 | 1334 ft | 184 kts | 253° |
| 2026-05-01 15:07 | 36.83107 | -2.42758 | 2014 ft | 181 kts | 254° |
| 2026-05-01 15:07 | 36.82782 | -2.44263 | 2697 ft | 179 kts | 254° |
| 2026-05-01 15:07 | 36.82448 | -2.45801 | 3175 ft | 189 kts | 254° |
| 2026-05-01 15:07 | 36.82093 | -2.47406 | 3712 ft | 193 kts | 255° |
| 2026-05-01 15:08 | 36.82109 | -2.49136 | 3923 ft | 213 kts | 296° |
| 2026-05-01 15:08 | 36.83142 | -2.50467 | 4111 ft | 224 kts | 338° |
| 2026-05-01 15:08 | 36.84712 | -2.50832 | 4287 ft | 238 kts | 352° |
| 2026-05-01 15:08 | 36.86341 | -2.51384 | 4630 ft | 250 kts | 344° |
| 2026-05-01 15:09 | 36.88073 | -2.52030 | 4914 ft | 267 kts | 345° |
| 2026-05-01 15:09 | 36.89869 | -2.52661 | 5592 ft | 267 kts | 345° |
| 2026-05-01 15:09 | 36.91669 | -2.53279 | 6292 ft | 269 kts | 345° |
| 2026-05-01 15:09 | 36.93476 | -2.53893 | 7005 ft | 270 kts | 345° |
| 2026-05-01 15:10 | 36.95298 | -2.54510 | 7687 ft | 272 kts | 345° |
| 2026-05-01 15:10 | 36.98995 | -2.55756 | 9056 ft | 279 kts | 344° |
| 2026-05-01 15:10 | 37.00878 | -2.56389 | 9793 ft | 281 kts | 343° |
| 2026-05-01 15:11 | 37.02772 | -2.57027 | 10481 ft | 286 kts | 343° |
| 2026-05-01 15:11 | 37.06906 | -2.58422 | 10905 ft | 328 kts | 343° |
| 2026-05-01 15:11 | 37.09137 | -2.59173 | 11429 ft | 335 kts | 343° |
| 2026-05-01 15:12 | 37.11398 | -2.59933 | 12078 ft | 339 kts | 343° |
| 2026-05-01 15:12 | 37.15985 | -2.61479 | 13493 ft | 344 kts | 343° |
| 2026-05-01 15:12 | 37.18264 | -2.62320 | 14153 ft | 348 kts | 337° |
| 2026-05-01 15:13 | 37.24316 | -2.67432 | 16174 ft | 353 kts | 318° |
| 2026-05-01 15:14 | 37.24928 | -2.68074 | 16413 ft | 354 kts | 318° |